Time;durP1;ratioP1;P1;durP2;ratioP2;P2;SDS_P1;SDS_P2;PMS_P1;PMS_P2;Temp;Humidity;BMP_temperature;BMP_pressure;BME280_temperature;BME280_humidity;BME280_pressure;Samples;Min_cycle;Max_cycle;Signal;HPM_P1;HPM_P2
2022/04/11 00:02:05;;;;;;;2.37;2.13;;;11.10;92.20;;;;;;5051807;28;20427;-73
2022/04/11 00:04:33;;;;;;;2.00;1.90;;;11.10;92.40;;;;;;5035036;28;20561;-73
2022/04/11 00:07:01;;;;;;;2.93;2.27;;;11.10;92.30;;;;;;5041992;28;20456;-73
2022/04/11 00:09:29;;;;;;;1.97;1.80;;;11.10;92.10;;;;;;5020591;28;20472;-73
2022/04/11 00:11:57;;;;;;;2.00;1.90;;;11.10;92.10;;;;;;5030415;28;20987;-73
2022/04/11 00:14:25;;;;;;;2.53;2.00;;;11.10;92.10;;;;;;5036628;28;20480;-73
2022/04/11 00:16:54;;;;;;;1.93;1.70;;;11.10;92.30;;;;;;5035534;28;20428;-73
2022/04/11 00:19:23;;;;;;;2.47;2.10;;;11.10;92.30;;;;;;5037639;28;20546;-73
2022/04/11 00:21:51;;;;;;;2.17;1.70;;;11.10;92.20;;;;;;5036247;28;20435;-73
2022/04/11 00:24:19;;;;;;;3.00;1.90;;;11.10;92.10;;;;;;5033793;28;21070;-73
2022/04/11 00:26:47;;;;;;;2.27;1.90;;;11.10;92.20;;;;;;5036369;28;20487;-73
2022/04/11 00:29:15;;;;;;;1.60;1.50;;;11.10;92.30;;;;;;5043261;28;20532;-73
2022/04/11 00:31:44;;;;;;;1.90;1.80;;;11.10;92.30;;;;;;5048594;28;20450;-73
2022/04/11 00:34:12;;;;;;;2.17;1.97;;;11.10;92.40;;;;;;5045360;28;20477;-73
2022/04/11 00:36:41;;;;;;;1.87;1.77;;;11.10;92.70;;;;;;5051039;28;20438;-73
2022/04/11 00:39:09;;;;;;;2.70;2.50;;;11.10;92.40;;;;;;5062985;28;20466;-74
2022/04/11 00:41:38;;;;;;;2.70;1.90;;;11.10;92.40;;;;;;5044837;28;20467;-73
2022/04/11 00:44:06;;;;;;;1.83;1.73;;;11.10;92.40;;;;;;5037745;28;20462;-73
2022/04/11 00:46:35;;;;;;;2.53;2.00;;;11.10;92.50;;;;;;5042454;28;20452;-74
2022/04/11 00:49:03;;;;;;;1.90;1.80;;;11.10;92.30;;;;;;5036959;28;20460;-74
2022/04/11 00:51:31;;;;;;;2.27;2.07;;;11.10;92.30;;;;;;5045192;28;20442;-74
2022/04/11 00:54:02;;;;;;;1.70;1.60;;;11.00;92.40;;;;;;5030041;28;20982;-73
2022/04/11 00:56:30;;;;;;;2.00;1.80;;;11.10;92.30;;;;;;5036434;28;20436;-74
2022/04/11 00:59:01;;;;;;;2.67;1.70;;;11.10;92.30;;;;;;5040641;28;20458;-73
2022/04/11 01:01:29;;;;;;;1.77;1.67;;;11.00;92.40;;;;;;5025840;28;20475;-74
2022/04/11 01:03:58;;;;;;;1.97;1.87;;;11.10;92.40;;;;;;5061264;28;20882;-73
2022/04/11 01:06:27;;;;;;;2.03;1.83;;;11.00;92.40;;;;;;5044172;28;20965;-73
2022/04/11 01:08:56;;;;;;;1.70;1.60;;;11.10;92.40;;;;;;5037032;28;20480;-73
2022/04/11 01:11:27;;;;;;;2.17;1.97;;;11.00;92.80;;;;;;5048750;28;20856;-74
2022/04/11 01:13:55;;;;;;;2.07;1.70;;;11.00;92.70;;;;;;5064652;28;20478;-73
2022/04/11 01:16:28;;;;;;;1.60;1.50;;;11.00;92.50;;;;;;5028968;28;20499;-74
2022/04/11 01:18:56;;;;;;;1.80;1.70;;;11.00;92.60;;;;;;5031366;28;20491;-73
2022/04/11 01:21:28;;;;;;;2.17;1.70;;;11.00;92.70;;;;;;5065957;28;20432;-74
2022/04/11 01:23:56;;;;;;;1.73;1.60;;;11.00;92.70;;;;;;5055529;28;20465;-73
2022/04/11 01:26:27;;;;;;;1.80;1.70;;;11.00;92.90;;;;;;5030390;28;20429;-74
2022/04/11 01:28:56;;;;;;;1.60;1.50;;;11.00;92.90;;;;;;5036222;28;20456;-74
2022/04/11 01:31:26;;;;;;;2.30;1.70;;;11.00;92.80;;;;;;5044325;28;20479;-73
2022/04/11 01:33:54;;;;;;;1.83;1.73;;;11.00;92.90;;;;;;5032510;28;20455;-74
2022/04/11 01:36:22;;;;;;;2.47;1.77;;;11.00;93.10;;;;;;5043984;28;20482;-74
2022/04/11 01:38:53;;;;;;;3.00;2.30;;;11.10;93.00;;;;;;5034392;28;20471;-73
2022/04/11 01:41:21;;;;;;;1.93;1.70;;;11.00;92.90;;;;;;5065207;28;20448;-73
2022/04/11 01:43:49;;;;;;;2.03;1.77;;;11.00;93.10;;;;;;5047029;28;20458;-74
2022/04/11 01:46:17;;;;;;;2.57;2.00;;;11.00;93.10;;;;;;5040799;28;20448;-73
2022/04/11 01:48:51;;;;;;;1.90;1.80;;;11.00;93.20;;;;;;5041585;28;20458;-74
2022/04/11 01:51:20;;;;;;;2.53;2.17;;;11.00;93.10;;;;;;5040101;28;20432;-74
2022/04/11 01:53:48;;;;;;;2.07;1.83;;;11.00;93.20;;;;;;5040980;28;20479;-74
2022/04/11 01:56:18;;;;;;;1.87;1.77;;;11.00;93.10;;;;;;5043932;28;20878;-73
2022/04/11 01:58:47;;;;;;;1.77;1.67;;;11.00;93.20;;;;;;5032682;28;20464;-73
2022/04/11 02:01:18;;;;;;;2.23;1.80;;;11.00;93.20;;;;;;5032605;28;20428;-73
2022/04/11 02:03:46;;;;;;;1.63;1.53;;;11.00;93.10;;;;;;5037329;28;20470;-74
2022/04/11 02:06:14;;;;;;;1.77;1.67;;;11.00;93.00;;;;;;5037669;28;20551;-74
2022/04/11 02:08:42;;;;;;;1.70;1.60;;;11.00;93.70;;;;;;5031298;28;20467;-73
2022/04/11 02:11:13;;;;;;;2.37;1.73;;;11.00;93.20;;;;;;5047445;28;20663;-73
2022/04/11 02:13:43;;;;;;;1.57;1.47;;;11.00;93.30;;;;;;5042266;28;20464;-74
2022/04/11 02:16:11;;;;;;;2.10;1.57;;;11.00;93.20;;;;;;5064041;28;20435;-73
2022/04/11 02:18:39;;;;;;;1.67;1.57;;;11.00;93.00;;;;;;5032051;28;20466;-73
2022/04/11 02:21:07;;;;;;;1.70;1.60;;;11.00;93.20;;;;;;5049635;28;20427;-73
2022/04/11 02:23:36;;;;;;;1.77;1.67;;;11.00;93.00;;;;;;5034355;28;20464;-73
2022/04/11 02:26:04;;;;;;;3.50;1.90;;;11.00;93.30;;;;;;5040768;28;20801;-74
2022/04/11 02:28:32;;;;;;;1.67;1.57;;;11.00;93.10;;;;;;5039174;28;20539;-74
2022/04/11 02:31:02;;;;;;;2.10;1.97;;;11.00;93.30;;;;;;5035455;28;20436;-73
2022/04/11 02:33:30;;;;;;;2.00;1.67;;;11.00;93.20;;;;;;5028962;28;20471;-73
2022/04/11 02:35:58;;;;;;;1.90;1.67;;;10.90;93.10;;;;;;5049211;28;20435;-74
2022/04/11 02:38:26;;;;;;;1.57;1.47;;;11.00;93.00;;;;;;5033281;28;20448;-74
2022/04/11 02:40:54;;;;;;;1.37;1.27;;;10.90;93.10;;;;;;5033675;28;20427;-74
2022/04/11 02:43:35;;;;;;;1.97;1.80;;;11.00;93.20;;;;;;5037347;28;20485;-73
2022/04/11 02:46:09;;;;;;;1.73;1.63;;;10.90;93.20;;;;;;5032551;28;20481;-73
2022/04/11 02:48:39;;;;;;;2.27;2.07;;;11.00;93.30;;;;;;5049936;28;20931;-73
2022/04/11 02:51:12;;;;;;;1.80;1.70;;;10.90;93.10;;;;;;5042161;28;20803;-73
2022/04/11 02:53:47;;;;;;;1.07;1.07;;;10.90;93.30;;;;;;5030808;28;20873;-73
2022/04/11 02:56:15;;;;;;;2.57;1.90;;;10.90;93.20;;;;;;5050903;28;20443;-73
2022/04/11 02:58:44;;;;;;;2.27;2.00;;;10.90;93.30;;;;;;5046575;28;20497;-73
2022/04/11 03:01:14;;;;;;;1.53;1.43;;;10.90;93.30;;;;;;5031086;28;20420;-73
2022/04/11 03:03:46;;;;;;;2.00;1.80;;;10.90;93.20;;;;;;5031545;28;20500;-73
2022/04/11 03:06:14;;;;;;;1.73;1.63;;;10.90;93.20;;;;;;5030564;28;20435;-73
2022/04/11 03:08:45;;;;;;;1.80;1.70;;;10.90;93.10;;;;;;5030145;28;20476;-73
2022/04/11 03:11:19;;;;;;;2.10;1.90;;;10.90;93.10;;;;;;5032089;28;20431;-73
2022/04/11 03:13:48;;;;;;;1.70;1.60;;;10.90;93.20;;;;;;5035255;28;20814;-74
2022/04/11 03:16:19;;;;;;;2.17;1.60;;;10.90;93.30;;;;;;5062421;28;20994;-73
2022/04/11 03:18:49;;;;;;;1.87;1.67;;;10.90;93.30;;;;;;5031314;28;20459;-73
2022/04/11 03:21:17;;;;;;;1.57;1.47;;;10.90;93.20;;;;;;5042878;28;20833;-74
2022/04/11 03:23:52;;;;;;;1.87;1.77;;;10.90;93.20;;;;;;5035417;28;20454;-73
2022/04/11 03:26:20;;;;;;;1.80;1.70;;;10.90;93.40;;;;;;5037520;28;20454;-74
2022/04/11 03:28:49;;;;;;;2.00;1.80;;;10.90;93.50;;;;;;5031530;28;20469;-73
2022/04/11 03:31:20;;;;;;;1.50;1.40;;;10.90;93.40;;;;;;5046729;28;20432;-73
2022/04/11 03:33:48;;;;;;;1.87;1.73;;;10.90;93.20;;;;;;5044137;28;20503;-73
2022/04/11 03:36:16;;;;;;;1.83;1.40;;;10.90;93.30;;;;;;5036635;28;20443;-73
2022/04/11 03:38:44;;;;;;;2.80;1.67;;;10.90;93.50;;;;;;5015222;28;20511;-73
2022/04/11 03:41:17;;;;;;;1.50;1.37;;;10.90;93.40;;;;;;5029409;28;20470;-74
2022/04/11 03:43:45;;;;;;;2.03;1.93;;;10.90;93.40;;;;;;5044641;28;20493;-73
2022/04/11 03:46:14;;;;;;;1.57;1.47;;;10.80;93.30;;;;;;5062437;28;20428;-74
2022/04/11 03:48:43;;;;;;;1.70;1.60;;;10.90;93.50;;;;;;5030485;28;20474;-74
2022/04/11 03:51:11;;;;;;;2.00;1.90;;;10.80;93.40;;;;;;5039465;28;20956;-74
2022/04/11 03:53:40;;;;;;;2.07;1.87;;;10.80;93.20;;;;;;5034559;28;20481;-73
2022/04/11 03:56:13;;;;;;;1.90;1.80;;;10.80;93.20;;;;;;5046738;28;20436;-73
2022/04/11 03:58:42;;;;;;;2.93;1.87;;;10.80;93.30;;;;;;5041690;28;20468;-73
2022/04/11 04:01:10;;;;;;;2.40;2.20;;;10.80;93.30;;;;;;5014505;28;20527;-73
2022/04/11 04:03:40;;;;;;;1.97;1.70;;;10.80;93.40;;;;;;5036226;28;21038;-73
2022/04/11 04:06:12;;;;;;;1.80;1.43;;;10.80;93.30;;;;;;5043255;28;20432;-77
2022/04/11 04:08:44;;;;;;;1.97;1.80;;;10.80;93.30;;;;;;5055445;28;20469;-73
2022/04/11 04:11:15;;;;;;;1.67;1.57;;;10.80;93.20;;;;;;5042674;28;20457;-73
2022/04/11 04:13:55;;;;;;;2.00;1.90;;;10.80;93.30;;;;;;5041313;28;21074;-73
2022/04/11 04:16:28;;;;;;;1.87;1.63;;;10.80;93.30;;;;;;5036029;28;21034;-73
2022/04/11 04:19:02;;;;;;;1.53;1.43;;;10.80;93.40;;;;;;5020906;28;20474;-73
2022/04/11 04:21:32;;;;;;;1.73;1.63;;;10.80;93.40;;;;;;5042763;28;20431;-73
2022/04/11 04:24:01;;;;;;;1.97;1.77;;;10.80;93.20;;;;;;5038786;28;20471;-73
2022/04/11 04:26:31;;;;;;;2.23;2.10;;;10.80;93.20;;;;;;5043186;28;20737;-73
2022/04/11 04:29:00;;;;;;;2.93;1.47;;;10.80;93.30;;;;;;5043181;28;20471;-74
2022/04/11 04:31:32;;;;;;;1.70;1.60;;;10.80;93.20;;;;;;5051873;28;20438;-74
2022/04/11 04:34:00;;;;;;;1.90;1.73;;;10.80;93.30;;;;;;5043492;28;20470;-73
2022/04/11 04:36:29;;;;;;;1.80;1.70;;;10.80;93.60;;;;;;5044782;28;20518;-73
2022/04/11 04:39:02;;;;;;;1.77;1.67;;;10.80;93.30;;;;;;5035553;28;20525;-73
2022/04/11 04:41:33;;;;;;;2.20;1.63;;;10.80;93.20;;;;;;5043495;28;20442;-73
2022/04/11 04:44:02;;;;;;;2.33;2.17;;;10.70;93.30;;;;;;5046291;28;20475;-73
2022/04/11 04:46:30;;;;;;;1.90;1.77;;;10.80;93.20;;;;;;5045719;28;20462;-73
2022/04/11 04:49:06;;;;;;;1.70;1.60;;;10.70;93.10;;;;;;5048027;28;21087;-73
2022/04/11 04:51:34;;;;;;;2.47;1.93;;;10.70;93.40;;;;;;5037163;28;20432;-73
2022/04/11 04:54:06;;;;;;;4.07;1.80;;;10.70;93.40;;;;;;5038321;28;20478;-73
2022/04/11 04:56:36;;;;;;;1.77;1.67;;;10.70;93.40;;;;;;5037757;28;20439;-73
2022/04/11 04:59:11;;;;;;;1.40;1.30;;;10.70;93.30;;;;;;5044429;28;20456;-73
2022/04/11 05:01:40;;;;;;;2.50;2.30;;;10.70;93.20;;;;;;5033187;28;20444;-74
2022/04/11 05:04:11;;;;;;;1.43;1.33;;;10.70;93.10;;;;;;5048402;28;20474;-73
2022/04/11 05:06:40;;;;;;;2.20;1.73;;;10.70;93.10;;;;;;5032680;28;20435;-73
2022/04/11 05:09:13;;;;;;;1.80;1.70;;;10.70;93.30;;;;;;5029488;28;21065;-73
2022/04/11 05:11:45;;;;;;;1.93;1.73;;;10.70;93.20;;;;;;5032843;28;20439;-73
2022/04/11 05:14:18;;;;;;;2.00;1.80;;;10.70;93.30;;;;;;5042793;28;20476;-73
2022/04/11 05:16:47;;;;;;;1.90;1.70;;;10.70;93.10;;;;;;5036070;28;20526;-74
2022/04/11 05:19:20;;;;;;;1.57;1.47;;;10.70;93.20;;;;;;5059974;28;20842;-73
2022/04/11 05:21:48;;;;;;;2.50;1.90;;;10.70;93.20;;;;;;5047715;28;20480;-74
2022/04/11 05:24:18;;;;;;;1.60;1.50;;;10.70;93.60;;;;;;5035439;28;20526;-72
2022/04/11 05:26:47;;;;;;;1.93;1.83;;;10.70;93.20;;;;;;5037843;28;20539;-73
2022/04/11 05:29:15;;;;;;;2.50;2.03;;;10.60;93.10;;;;;;5033011;28;20857;-74
2022/04/11 05:31:44;;;;;;;2.43;1.80;;;10.60;93.30;;;;;;5044348;28;20539;-73
2022/04/11 05:34:12;;;;;;;5.30;1.70;;;10.70;93.20;;;;;;5064388;28;20550;-74
2022/04/11 05:36:40;;;;;;;1.70;1.60;;;10.60;93.30;;;;;;5040818;28;20443;-73
2022/04/11 05:39:10;;;;;;;1.63;1.53;;;10.60;93.20;;;;;;5063259;28;21022;-73
2022/04/11 05:41:40;;;;;;;1.63;1.53;;;10.60;93.30;;;;;;5064966;28;20430;-73
2022/04/11 05:44:08;;;;;;;2.33;1.43;;;10.60;93.30;;;;;;5040443;28;20479;-74
2022/04/11 05:46:42;;;;;;;1.93;1.83;;;10.60;93.40;;;;;;5042483;28;20435;-73
2022/04/11 05:49:30;;;;;;;2.40;2.20;;;10.60;93.40;;;;;;5038349;28;20490;-73
2022/04/11 05:52:00;;;;;;;2.00;1.83;;;10.60;93.30;;;;;;5064890;28;20442;-74
2022/04/11 05:54:28;;;;;;;2.40;2.20;;;10.60;93.40;;;;;;5025806;28;20473;-74
2022/04/11 05:56:58;;;;;;;2.23;2.03;;;10.60;92.90;;;;;;5045050;28;20537;-73
2022/04/11 05:59:26;;;;;;;1.77;1.67;;;10.60;93.20;;;;;;5047293;28;20459;-74
2022/04/11 06:01:54;;;;;;;2.10;1.97;;;10.60;93.30;;;;;;5032188;28;20814;-73
2022/04/11 06:04:23;;;;;;;2.80;1.80;;;10.60;93.20;;;;;;5040724;28;20475;-74
2022/04/11 06:06:51;;;;;;;2.30;2.10;;;10.60;93.30;;;;;;5050725;28;20435;-73
2022/04/11 06:09:19;;;;;;;2.10;2.00;;;10.60;93.30;;;;;;5023473;28;20987;-73
2022/04/11 06:11:48;;;;;;;2.40;2.10;;;10.60;93.40;;;;;;5044733;28;20428;-74
2022/04/11 06:14:18;;;;;;;2.13;1.93;;;10.60;93.30;;;;;;5032372;28;20479;-73
2022/04/11 06:16:46;;;;;;;2.80;2.13;;;10.60;93.10;;;;;;5031309;28;20503;-74
2022/04/11 06:19:16;;;;;;;1.80;1.70;;;10.60;93.40;;;;;;5042175;28;20528;-74
2022/04/11 06:21:45;;;;;;;4.30;1.83;;;10.60;93.20;;;;;;5050836;28;20427;-73
2022/04/11 06:24:13;;;;;;;2.20;1.93;;;10.60;93.10;;;;;;5042877;28;20475;-73
2022/04/11 06:26:41;;;;;;;2.43;2.00;;;10.60;93.10;;;;;;5048013;28;20493;-74
2022/04/11 06:29:10;;;;;;;1.93;1.83;;;10.60;92.80;;;;;;5038589;28;20514;-73
2022/04/11 06:31:40;;;;;;;2.10;1.90;;;10.50;93.10;;;;;;5028196;28;20548;-74
2022/04/11 06:34:18;;;;;;;1.90;1.80;;;10.50;93.00;;;;;;5047935;28;20477;-74
2022/04/11 06:36:47;;;;;;;1.70;1.60;;;10.50;92.90;;;;;;5038738;28;20484;-74
2022/04/11 06:39:15;;;;;;;1.60;1.50;;;10.50;92.60;;;;;;5034548;28;20479;-73
2022/04/11 06:41:49;;;;;;;3.80;2.13;;;10.50;92.90;;;;;;5064532;28;20424;-74
2022/04/11 06:44:17;;;;;;;2.10;1.73;;;10.50;92.90;;;;;;5030231;28;20468;-73
2022/04/11 06:47:06;;;;;;;1.63;1.53;;;10.60;92.90;;;;;;5030855;28;20462;-73
2022/04/11 06:49:38;;;;;;;2.20;1.90;;;10.60;93.00;;;;;;5010499;28;20492;-74
2022/04/11 06:52:07;;;;;;;1.93;1.83;;;10.60;93.00;;;;;;5038645;28;20547;-74
2022/04/11 06:54:36;;;;;;;2.00;1.60;;;10.60;93.00;;;;;;5028810;28;20857;-73
2022/04/11 06:57:05;;;;;;;1.90;1.80;;;10.60;93.00;;;;;;5023527;28;20441;-74
2022/04/11 06:59:33;;;;;;;1.60;1.50;;;10.60;93.00;;;;;;5042439;28;20976;-74
2022/04/11 07:02:03;;;;;;;1.70;1.60;;;10.60;93.00;;;;;;5031023;28;20475;-73
2022/04/11 07:04:31;;;;;;;2.03;1.53;;;10.60;92.90;;;;;;5034570;28;20558;-73
2022/04/11 07:06:59;;;;;;;1.43;1.33;;;10.70;93.00;;;;;;5027712;28;20870;-73
2022/04/11 07:09:32;;;;;;;1.63;1.53;;;10.70;92.90;;;;;;5035472;28;20573;-73
2022/04/11 07:12:00;;;;;;;2.27;2.07;;;10.70;92.90;;;;;;5051442;28;20554;-74
2022/04/11 07:14:28;;;;;;;2.03;1.77;;;10.70;92.90;;;;;;5033236;28;20539;-73
2022/04/11 07:16:56;;;;;;;1.67;1.57;;;10.70;92.90;;;;;;5014097;28;20444;-73
2022/04/11 07:19:25;;;;;;;1.97;1.70;;;10.70;92.80;;;;;;5026094;28;20459;-74
2022/04/11 07:21:53;;;;;;;2.07;1.73;;;10.70;92.70;;;;;;5039324;28;20493;-74
2022/04/11 07:24:22;;;;;;;3.70;2.00;;;10.70;92.80;;;;;;5025124;28;20974;-73
2022/04/11 07:26:50;;;;;;;1.90;1.80;;;10.70;92.80;;;;;;5019046;28;20489;-74
2022/04/11 07:29:18;;;;;;;2.90;2.37;;;10.70;92.80;;;;;;5050368;28;21101;-73
2022/04/11 07:31:46;;;;;;;3.40;2.13;;;10.80;92.80;;;;;;5049542;28;20459;-74
2022/04/11 07:34:14;;;;;;;2.03;1.77;;;10.80;92.80;;;;;;5035019;28;20472;-74
2022/04/11 07:36:43;;;;;;;2.10;1.77;;;10.80;92.80;;;;;;5033783;28;20538;-74
2022/04/11 07:39:13;;;;;;;3.20;2.00;;;10.80;92.80;;;;;;5012956;28;20978;-74
2022/04/11 07:41:41;;;;;;;3.27;2.70;;;10.80;92.80;;;;;;5021228;28;20502;-74
2022/04/11 07:44:09;;;;;;;4.37;2.40;;;10.80;92.40;;;;;;5031972;28;20510;-73
2022/04/11 07:46:37;;;;;;;2.17;1.93;;;10.90;92.40;;;;;;5024990;28;20445;-73
2022/04/11 07:49:05;;;;;;;2.53;1.73;;;10.90;92.40;;;;;;5041052;28;20546;-73
2022/04/11 07:51:33;;;;;;;3.33;2.07;;;10.90;92.80;;;;;;5041768;28;20451;-74
2022/04/11 07:54:03;;;;;;;3.60;2.17;;;10.80;92.30;;;;;;5020887;28;20836;-74
2022/04/11 07:56:31;;;;;;;2.63;2.23;;;10.80;92.40;;;;;;5034493;28;20432;-73
2022/04/11 07:58:59;;;;;;;2.80;2.33;;;10.80;92.50;;;;;;5031095;28;20514;-74
2022/04/11 08:01:28;;;;;;;2.60;2.30;;;10.80;92.50;;;;;;5042080;28;20952;-73
2022/04/11 08:03:56;;;;;;;2.20;2.00;;;10.90;92.70;;;;;;5036208;28;20996;-75
2022/04/11 08:06:24;;;;;;;4.60;2.20;;;10.80;92.60;;;;;;5045820;28;20439;-73
2022/04/11 08:08:52;;;;;;;3.43;2.30;;;10.80;92.70;;;;;;5037805;28;20465;-73
2022/04/11 08:11:22;;;;;;;2.43;2.23;;;10.80;92.70;;;;;;5031119;28;20470;-74
2022/04/11 08:13:50;;;;;;;3.27;2.07;;;10.80;92.70;;;;;;5053411;28;20513;-74
2022/04/11 08:16:18;;;;;;;2.03;1.83;;;10.80;92.70;;;;;;5041215;28;20819;-74
2022/04/11 08:18:47;;;;;;;1.93;1.67;;;10.80;92.80;;;;;;5024691;28;20554;-73
2022/04/11 08:21:15;;;;;;;2.03;1.83;;;10.80;92.80;;;;;;5029224;28;20495;-74
2022/04/11 08:23:43;;;;;;;2.57;2.37;;;10.90;92.80;;;;;;5014617;28;20464;-73
2022/04/11 08:26:11;;;;;;;2.67;2.20;;;10.80;92.80;;;;;;5022736;28;20857;-73
2022/04/11 08:28:40;;;;;;;1.90;1.80;;;10.90;92.90;;;;;;5052236;28;20447;-73
2022/04/11 08:31:08;;;;;;;3.33;2.27;;;10.90;92.90;;;;;;5049124;28;20949;-74
2022/04/11 08:33:37;;;;;;;2.80;2.40;;;10.90;92.90;;;;;;5039032;28;20754;-74
2022/04/11 08:36:05;;;;;;;3.00;2.10;;;10.90;92.90;;;;;;5043313;28;20486;-73
2022/04/11 08:38:33;;;;;;;2.20;2.00;;;10.90;92.90;;;;;;5048901;28;20958;-74
2022/04/11 08:41:03;;;;;;;2.10;1.83;;;10.90;93.00;;;;;;5040421;28;20489;-75
2022/04/11 08:43:33;;;;;;;2.23;1.90;;;10.90;93.00;;;;;;5038413;28;20505;-73
2022/04/11 08:46:06;;;;;;;2.60;2.40;;;10.90;93.00;;;;;;5038307;28;20546;-73
2022/04/11 08:48:34;;;;;;;2.47;1.90;;;10.90;93.00;;;;;;5057040;28;20471;-74
2022/04/11 08:51:04;;;;;;;2.50;2.30;;;10.90;93.00;;;;;;5038625;28;20448;-73
2022/04/11 08:53:33;;;;;;;2.23;2.03;;;10.90;93.00;;;;;;5027907;28;21063;-74
2022/04/11 08:56:01;;;;;;;2.23;2.13;;;10.90;93.10;;;;;;5025981;28;20432;-74
2022/04/11 08:58:30;;;;;;;2.83;2.00;;;10.90;93.10;;;;;;5041944;28;20871;-74
2022/04/11 09:00:59;;;;;;;4.37;1.93;;;10.90;93.10;;;;;;5043352;28;20444;-73
2022/04/11 09:03:28;;;;;;;4.30;2.20;;;10.90;93.10;;;;;;5028679;28;20970;-73
2022/04/11 09:06:06;;;;;;;3.20;1.90;;;10.90;93.00;;;;;;5036725;28;20435;-74
2022/04/11 09:08:41;;;;;;;2.70;1.90;;;10.90;93.10;;;;;;5022357;28;20442;-73
2022/04/11 09:11:11;;;;;;;2.03;1.90;;;10.90;93.10;;;;;;5036067;28;20438;-74
2022/04/11 09:13:50;;;;;;;2.20;2.00;;;10.90;93.10;;;;;;5039924;28;20895;-73
2022/04/11 09:16:19;;;;;;;1.77;1.50;;;10.90;93.10;;;;;;5037333;28;20440;-74
2022/04/11 09:18:53;;;;;;;4.53;2.27;;;10.90;93.10;;;;;;5024191;28;20483;-73
2022/04/11 09:21:23;;;;;;;1.50;1.40;;;10.90;92.90;;;;;;5036262;28;20493;-74
2022/04/11 09:24:12;;;;;;;1.83;1.67;;;10.90;92.90;;;;;;5033852;28;20490;-74
2022/04/11 09:26:40;;;;;;;1.83;1.63;;;10.90;92.80;;;;;;5033250;28;20468;-73
2022/04/11 09:29:09;;;;;;;2.50;2.23;;;10.90;92.70;;;;;;5039046;28;20567;-73
2022/04/11 09:31:37;;;;;;;3.43;2.20;;;10.90;92.70;;;;;;5032492;28;20530;-73
2022/04/11 09:34:16;;;;;;;2.07;1.70;;;10.90;92.60;;;;;;5020513;28;20476;-74
2022/04/11 09:36:46;;;;;;;1.83;1.60;;;10.90;92.60;;;;;;5036401;28;20531;-72
2022/04/11 09:39:29;;;;;;;3.80;1.87;;;10.90;92.50;;;;;;5026408;28;20464;-74
2022/04/11 09:42:04;;;;;;;2.50;1.80;;;10.90;92.40;;;;;;5029410;28;20857;-75
2022/04/11 09:44:34;;;;;;;1.70;1.50;;;10.90;92.40;;;;;;5048836;28;20470;-74
2022/04/11 09:47:11;;;;;;;1.83;1.70;;;10.90;92.40;;;;;;5053455;28;20510;-73
2022/04/11 09:49:41;;;;;;;2.50;2.30;;;11.00;92.40;;;;;;5032960;28;20997;-74
2022/04/11 09:52:11;;;;;;;2.60;2.10;;;10.90;92.30;;;;;;5041302;28;20466;-74
2022/04/11 09:54:42;;;;;;;2.70;1.80;;;10.90;92.30;;;;;;5030813;28;20493;-74
2022/04/11 09:57:13;;;;;;;1.73;1.40;;;10.90;92.30;;;;;;5040991;28;20444;-74
2022/04/11 09:59:43;;;;;;;3.00;2.03;;;10.90;92.30;;;;;;5032634;28;20542;-74
2022/04/11 10:02:41;;;;;;;2.40;2.00;;;11.00;92.40;;;;;;5037931;28;20453;-74
2022/04/11 10:05:12;;;;;;;1.87;1.77;;;10.90;92.40;;;;;;5045576;28;20829;-74
2022/04/11 10:07:41;;;;;;;2.20;2.00;;;10.90;92.40;;;;;;5046005;28;20865;-74
2022/04/11 10:10:09;;;;;;;1.83;1.50;;;10.90;92.40;;;;;;5047509;28;20470;-74
2022/04/11 10:12:39;;;;;;;3.03;2.30;;;10.90;92.30;;;;;;5052565;28;20455;-73
2022/04/11 10:15:08;;;;;;;2.90;2.00;;;10.90;92.40;;;;;;5035284;28;20492;-74
2022/04/11 10:17:37;;;;;;;2.73;2.07;;;10.90;92.40;;;;;;5018558;28;20437;-74
2022/04/11 10:20:06;;;;;;;2.60;1.77;;;10.90;92.40;;;;;;5036020;28;20849;-73
2022/04/11 10:22:44;;;;;;;3.00;2.43;;;10.90;92.50;;;;;;5037829;28;20537;-74
2022/04/11 10:25:16;;;;;;;2.77;2.37;;;11.00;92.60;;;;;;5045475;28;20883;-74
2022/04/11 10:27:45;;;;;;;1.80;1.70;;;10.90;92.50;;;;;;5043983;28;20563;-74
2022/04/11 10:30:27;;;;;;;1.93;1.83;;;10.90;92.60;;;;;;5034507;28;20499;-74
2022/04/11 10:32:56;;;;;;;1.80;1.70;;;10.90;92.60;;;;;;5014002;28;20535;-73
2022/04/11 10:35:39;;;;;;;1.97;1.77;;;10.90;92.60;;;;;;5011989;28;20465;-75
2022/04/11 10:38:11;;;;;;;1.97;1.77;;;10.90;92.60;;;;;;5031794;28;20931;-75
2022/04/11 10:40:46;;;;;;;1.90;1.80;;;10.90;92.50;;;;;;5038019;28;20559;-74
2022/04/11 10:43:35;;;;;;;1.57;1.47;;;11.00;92.70;;;;;;5028958;28;20530;-74
2022/04/11 10:46:03;;;;;;;3.70;1.70;;;10.90;92.60;;;;;;5039481;28;20449;-74
2022/04/11 10:48:58;;;;;;;2.53;1.83;;;10.90;92.50;;;;;;5018346;28;20452;-73
2022/04/11 10:51:27;;;;;;;1.93;1.37;;;11.00;92.50;;;;;;5033047;28;20447;-75
2022/04/11 10:54:27;;;;;;;1.90;1.80;;;10.90;92.50;;;;;;5034635;28;20984;-73
2022/04/11 10:57:33;;;;;;;2.07;1.90;;;11.00;92.60;;;;;;4989861;28;20446;-73
2022/04/11 11:00:08;;;;;;;3.10;2.10;;;11.00;92.50;;;;;;5040223;28;20522;-73
2022/04/11 11:03:08;;;;;;;2.03;1.80;;;11.00;92.30;;;;;;5014476;28;20455;-73
2022/04/11 11:05:39;;;;;;;2.80;1.73;;;11.00;92.30;;;;;;5043226;28;20467;-74
2022/04/11 11:08:33;;;;;;;2.00;1.90;;;11.00;92.40;;;;;;5029784;28;20531;-73
2022/04/11 11:11:21;;;;;;;1.73;1.53;;;11.00;92.30;;;;;;5031230;28;20513;-73
2022/04/11 11:13:50;;;;;;;2.73;1.97;;;11.00;92.30;;;;;;5049348;28;20467;-74
2022/04/11 11:16:37;;;;;;;2.73;1.90;;;11.00;92.30;;;;;;5046235;28;20494;-73
2022/04/11 11:19:21;;;;;;;1.80;1.70;;;11.00;92.10;;;;;;5046017;28;20737;-74
2022/04/11 11:22:05;;;;;;;2.00;1.90;;;11.00;92.20;;;;;;5033069;28;20436;-73
2022/04/11 11:24:36;;;;;;;1.70;1.60;;;11.00;92.30;;;;;;5017825;28;20469;-73
2022/04/11 11:27:08;;;;;;;2.43;1.73;;;11.00;92.30;;;;;;5033501;28;20889;-74
2022/04/11 11:29:43;;;;;;;2.13;1.53;;;11.00;92.30;;;;;;5037706;28;20463;-73
2022/04/11 11:32:14;;;;;;;2.10;1.90;;;11.00;92.30;;;;;;5041055;28;20475;-74
2022/04/11 11:34:43;;;;;;;1.83;1.70;;;11.00;92.40;;;;;;5038371;28;20540;-75
2022/04/11 11:37:14;;;;;;;1.90;1.80;;;11.00;92.40;;;;;;5031405;28;20448;-74
2022/04/11 11:39:45;;;;;;;1.53;1.43;;;11.00;92.50;;;;;;5028753;28;20455;-74
2022/04/11 11:42:17;;;;;;;3.13;2.07;;;11.00;92.50;;;;;;5035702;28;20420;-74
2022/04/11 11:44:47;;;;;;;1.97;1.87;;;11.00;92.50;;;;;;5039000;28;20503;-73
2022/04/11 11:47:16;;;;;;;1.67;1.57;;;11.00;92.50;;;;;;5055024;28;20496;-74
2022/04/11 11:49:47;;;;;;;2.70;2.10;;;11.00;92.60;;;;;;5043646;28;20509;-73
2022/04/11 11:52:18;;;;;;;1.83;1.73;;;11.00;92.60;;;;;;5034596;28;20934;-74
2022/04/11 11:54:47;;;;;;;1.63;1.53;;;11.00;92.50;;;;;;5035907;28;20474;-74
2022/04/11 11:57:18;;;;;;;2.33;2.13;;;11.10;92.60;;;;;;5050895;28;20936;-72
2022/04/11 11:59:52;;;;;;;3.53;2.70;;;11.10;92.60;;;;;;5049398;28;20466;-74
2022/04/11 12:05:16;;;;;;;3.50;3.13;;;11.30;86.80;;;;;;5032823;28;20563;-73
2022/04/11 12:07:45;;;;;;;4.20;3.80;;;11.60;84.90;;;;;;5037694;28;20789;-73
2022/04/11 12:10:14;;;;;;;5.10;3.87;;;11.70;82.70;;;;;;5042378;28;20517;-74
2022/04/11 12:12:46;;;;;;;5.60;3.00;;;11.70;83.80;;;;;;5039366;28;20439;-73
2022/04/11 12:15:15;;;;;;;4.53;3.43;;;11.70;83.30;;;;;;5040497;28;20545;-73
2022/04/11 12:17:46;;;;;;;3.53;3.20;;;11.70;83.20;;;;;;5031804;28;20969;-73
2022/04/11 12:20:16;;;;;;;7.73;3.03;;;11.60;84.80;;;;;;5013792;28;20549;-73
2022/04/11 12:23:00;;;;;;;3.83;3.00;;;11.60;84.90;;;;;;5014857;28;20802;-73
2022/04/11 12:25:30;;;;;;;3.30;2.80;;;11.50;85.70;;;;;;5011779;28;20468;-73
2022/04/11 12:28:15;;;;;;;3.73;3.37;;;11.50;86.30;;;;;;5015008;28;20425;-74
2022/04/11 12:30:46;;;;;;;3.07;2.80;;;11.40;86.70;;;;;;5014654;28;20846;-73
2022/04/11 12:33:34;;;;;;;4.70;3.20;;;11.40;86.90;;;;;;5014737;28;20516;-73
2022/04/11 12:36:13;;;;;;;5.77;3.20;;;11.40;87.40;;;;;;5014613;28;20986;-74
2022/04/11 12:38:43;;;;;;;3.03;2.83;;;11.30;87.50;;;;;;5014624;28;20543;-73
2022/04/11 12:41:29;;;;;;;3.10;2.77;;;11.30;87.90;;;;;;5014909;28;20432;-73
2022/04/11 12:44:08;;;;;;;3.27;2.97;;;11.30;88.50;;;;;;5014233;28;20535;-74
2022/04/11 12:46:38;;;;;;;3.43;2.73;;;11.30;88.40;;;;;;5014902;28;20535;-74
2022/04/11 12:49:07;;;;;;;3.33;3.03;;;11.30;88.80;;;;;;5014105;28;20993;-74
2022/04/11 12:51:36;;;;;;;3.70;3.00;;;11.30;88.90;;;;;;5013833;28;20425;-74
2022/04/11 12:54:06;;;;;;;2.67;2.47;;;11.30;89.20;;;;;;5013452;28;20479;-74
2022/04/11 12:56:40;;;;;;;3.10;2.17;;;11.30;89.60;;;;;;5014799;28;20460;-74
2022/04/11 12:59:11;;;;;;;3.60;2.67;;;11.30;89.50;;;;;;5014043;28;20460;-74
2022/04/11 13:01:58;;;;;;;2.67;2.47;;;11.30;89.70;;;;;;5014878;28;20451;-73
2022/04/11 13:04:28;;;;;;;3.40;1.97;;;11.30;89.60;;;;;;5013751;28;20493;-73
2022/04/11 13:06:56;;;;;;;2.50;2.30;;;11.30;89.60;;;;;;5014545;28;20433;-73
2022/04/11 13:09:25;;;;;;;2.73;2.13;;;11.30;89.80;;;;;;5014221;28;20472;-74
2022/04/11 13:11:54;;;;;;;4.20;2.10;;;11.30;89.90;;;;;;5013279;28;20425;-73